Darstellungsparameter: Aktuell verwendete Einstellungen:
Skalierung der Graphiken ... ?
xyx+y,   Skalierungsfaktor:      Skalierung: Modus: x, Faktor: 1
Darstellungszeitraum ... ?
Vom - - bis: - -   Zeitraum: 13.10.2018 - 13.10.2018
Min/Max/Avg-Anzeige ... ?
Zeige MMA aktuell
Zeige MMA Monat
Zeige MMA alles
Zeige --A aktuell
Zeige --A Monat
Zeige --A alles
Keine MMA-Anzeige
MMA:
Minimum Maximum Average (ber die Originaldaten)
MMA-Basis: 12.09.2015 - 14.10.2015
Quicknavigation für Darstellung... ?
Tage:      1T, 2T, 3T, 5T -1T -2T -3T -5T +1T +2T +3T +5T
Wochen: 1W, 2W, 3W -1W -2W -3W +1W +2W +3W
Monate: 1M, 3M, 6M -1M -3M -6M +1M +3M +6M
Jahre:    1J, 3J, 5J, 10J -1J -3J -5J -10J +1J +3J +5J +10J
Nutze für die Darstellung ... ?
Originaldaten oder Mittelwerte auf ...
Stundenbasis Tagesbasis Wochenbasis
Monatsbasis Jahresbasis      Datenbasis: Original-Daten
Darstellen als:
Statistik (Auto) Statistik J:M      Darstellung:
Zur Graphik,    zurück zur Übersicht aller Sensoren.
 
Tabellarische Datenbersicht: ?
 
Sensor: Nr:Datum:Temp:Abs-Feuchte:Windchill:Wind:
Aussen-T/F 1 13-10-2018 00:00:00 14 C 11.1 g/m*3 14 C 0 km/h
2 13-10-2018 00:05:00 14 C 11.1 g/m*3 14 C 0 km/h
3 13-10-2018 00:10:00 14.1 C 11.17 g/m*3 14.1 C 0 km/h
4 13-10-2018 00:15:00 14 C 11.1 g/m*3 14 C 0 km/h
5 13-10-2018 00:20:00 13.9 C 10.91 g/m*3 13.9 C 0 km/h
6 13-10-2018 00:25:00 13.8 C 10.84 g/m*3 13.8 C 0 km/h
7 13-10-2018 00:30:00 13.8 C 10.96 g/m*3 13.8 C 0 km/h
8 13-10-2018 00:35:00 13.7 C 10.89 g/m*3 13.7 C 0 km/h
9 13-10-2018 00:40:00 13.7 C 10.89 g/m*3 13.7 C 0 km/h
10 13-10-2018 00:45:00 13.7 C 10.89 g/m*3 13.7 C 0 km/h
11 13-10-2018 00:50:00 13.6 C 10.83 g/m*3 13.6 C 0 km/h
12 13-10-2018 00:55:00 13.6 C 10.95 g/m*3 13.6 C 0 km/h
13 13-10-2018 01:00:00 13.6 C 10.95 g/m*3 13.6 C 0 km/h
14 13-10-2018 01:05:00 13.6 C 10.95 g/m*3 13.6 C 0 km/h
15 13-10-2018 01:10:00 13.4 C 10.69 g/m*3 13.4 C 0 km/h
16 13-10-2018 01:15:00 13.3 C 10.63 g/m*3 13.3 C 0 km/h
17 13-10-2018 01:20:00 13.3 C 10.74 g/m*3 13.3 C 0 km/h
18 13-10-2018 01:25:00 13.2 C 10.68 g/m*3 13.2 C 0 km/h
19 13-10-2018 01:30:00 13.2 C 10.68 g/m*3 13.2 C 0 km/h
20 13-10-2018 01:35:00 13.1 C 10.61 g/m*3 13.1 C 0 km/h
21 13-10-2018 01:40:00 13 C 10.55 g/m*3 13 C 0 km/h
22 13-10-2018 01:45:00 13 C 10.55 g/m*3 13 C 0 km/h
23 13-10-2018 01:50:00 13 C 10.55 g/m*3 13 C 0 km/h
24 13-10-2018 01:55:00 12.9 C 10.48 g/m*3 12.9 C 0 km/h
25 13-10-2018 02:00:00 12.9 C 10.48 g/m*3 12.9 C 0 km/h
Sensor: Nr:Datum:Temp:Abs-Feuchte:Windchill:Wind:
Aussen-T/F 26 13-10-2018 02:05:00 12.9 C 10.48 g/m*3 12.9 C 0 km/h
27 13-10-2018 02:10:00 12.8 C 10.42 g/m*3 12.8 C 0 km/h
28 13-10-2018 02:15:00 12.7 C 10.46 g/m*3 12.7 C 0 km/h
29 13-10-2018 02:20:00 12.7 C 10.35 g/m*3 12.7 C 0 km/h
30 13-10-2018 02:25:00 12.6 C 10.29 g/m*3 12.6 C 0 km/h
31 13-10-2018 02:30:00 12.5 C 10.22 g/m*3 12.5 C 0 km/h
32 13-10-2018 02:35:00 12.5 C 10.33 g/m*3 12.5 C 0 km/h
33 13-10-2018 02:40:00 12.5 C 10.33 g/m*3 12.5 C 0 km/h
34 13-10-2018 02:45:00 12.4 C 10.27 g/m*3 12.4 C 0 km/h
35 13-10-2018 02:50:00 12.5 C 10.33 g/m*3 12.5 C 0 km/h
36 13-10-2018 02:55:00 12.5 C 10.33 g/m*3 12.5 C 0 km/h
37 13-10-2018 03:00:00 12.6 C 10.4 g/m*3 12.6 C 0 km/h
38 13-10-2018 03:05:00 12.4 C 10.27 g/m*3 12.4 C 0 km/h
39 13-10-2018 03:10:00 12.3 C 10.21 g/m*3 12.3 C 0 km/h
40 13-10-2018 03:15:00 12.2 C 10.14 g/m*3 12.2 C 0 km/h
41 13-10-2018 03:20:00 12.2 C 10.14 g/m*3 12.2 C 0 km/h
42 13-10-2018 03:25:00 12.1 C 10.08 g/m*3 12.1 C 0 km/h
43 13-10-2018 03:30:00 12 C 10.02 g/m*3 12 C 0 km/h
44 13-10-2018 03:35:00 12 C 10.02 g/m*3 12 C 0 km/h
45 13-10-2018 03:40:00 12 C 10.02 g/m*3 12 C 0 km/h
46 13-10-2018 03:45:00 11.9 C 9.96 g/m*3 11.9 C 0 km/h
47 13-10-2018 03:50:00 11.8 C 9.89 g/m*3 11.8 C 0 km/h
48 13-10-2018 03:55:00 11.8 C 9.89 g/m*3 11.8 C 0 km/h
49 13-10-2018 04:00:00 11.8 C 9.89 g/m*3 11.8 C 0 km/h
50 13-10-2018 04:05:00 11.8 C 10 g/m*3 11.8 C 0 km/h
Sensor: Nr:Datum:Temp:Abs-Feuchte:Windchill:Wind:
Aussen-T/F 51 13-10-2018 04:10:00 11.7 C 9.83 g/m*3 11.7 C 0 km/h
52 13-10-2018 04:15:00 11.7 C 9.94 g/m*3 11.7 C 0 km/h
53 13-10-2018 04:20:00 11.7 C 9.94 g/m*3 11.7 C 0 km/h
54 13-10-2018 04:25:00 11.7 C 9.94 g/m*3 11.7 C 0 km/h
55 13-10-2018 04:30:00 11.6 C 9.77 g/m*3 11.6 C 0 km/h
56 13-10-2018 04:35:00 11.6 C 9.87 g/m*3 11.6 C 0 km/h
57 13-10-2018 04:40:00 11.8 C 10 g/m*3 11.8 C 0 km/h
58 13-10-2018 04:45:00 11.8 C 10 g/m*3 11.8 C 0 km/h
59 13-10-2018 04:50:00 11.7 C 9.94 g/m*3 11.7 C 0 km/h
60 13-10-2018 04:55:00 11.6 C 9.87 g/m*3 11.6 C 0 km/h
61 13-10-2018 05:00:00 11.5 C 9.81 g/m*3 11.5 C 0 km/h
62 13-10-2018 05:05:00 11.5 C 9.81 g/m*3 11.5 C 0 km/h
63 13-10-2018 05:10:00 11.4 C 9.75 g/m*3 11.4 C 0 km/h
64 13-10-2018 05:15:00 11.4 C 9.75 g/m*3 11.4 C 0 km/h
65 13-10-2018 05:20:00 11.4 C 9.75 g/m*3 11.4 C 0 km/h
66 13-10-2018 05:25:00 11.4 C 9.75 g/m*3 11.4 C 0 km/h
67 13-10-2018 05:30:00 11.4 C 9.75 g/m*3 11.4 C 0 km/h
68 13-10-2018 05:35:00 11.4 C 9.75 g/m*3 11.4 C 0 km/h
69 13-10-2018 05:40:00 11.4 C 9.75 g/m*3 11.4 C 0 km/h
70 13-10-2018 05:45:00 11.4 C 9.75 g/m*3 11.4 C 0 km/h
71 13-10-2018 05:50:00 11.3 C 9.69 g/m*3 11.3 C 0 km/h
72 13-10-2018 05:55:00 11.2 C 9.63 g/m*3 11.2 C 0 km/h
73 13-10-2018 06:00:00 11.2 C 9.63 g/m*3 11.2 C 0 km/h
74 13-10-2018 06:05:00 11.2 C 9.63 g/m*3 11.2 C 0 km/h
75 13-10-2018 06:10:00 11.1 C 9.57 g/m*3 11.1 C 0 km/h
Sensor: Nr:Datum:Temp:Abs-Feuchte:Windchill:Wind:
Aussen-T/F 76 13-10-2018 06:15:00 11.1 C 9.57 g/m*3 11.1 C 0 km/h
77 13-10-2018 06:20:00 11 C 9.51 g/m*3 11 C 0 km/h
78 13-10-2018 06:25:00 10.9 C 9.45 g/m*3 10.9 C 0 km/h
79 13-10-2018 06:30:00 10.9 C 9.55 g/m*3 10.9 C 0 km/h
80 13-10-2018 06:35:00 11 C 9.61 g/m*3 11 C 0 km/h
81 13-10-2018 06:40:00 10.9 C 9.55 g/m*3 10.9 C 0 km/h
82 13-10-2018 06:45:00 10.9 C 9.55 g/m*3 10.9 C 0 km/h
83 13-10-2018 06:50:00 10.9 C 9.55 g/m*3 10.9 C 0 km/h
84 13-10-2018 06:55:00 11.1 C 9.67 g/m*3 11.1 C 0 km/h
85 13-10-2018 07:00:00 11.2 C 9.73 g/m*3 11.2 C 0 km/h
86 13-10-2018 07:05:00 11.2 C 9.73 g/m*3 11.2 C 0 km/h
87 13-10-2018 07:10:00 11.2 C 9.73 g/m*3 11.2 C 0 km/h
88 13-10-2018 07:15:00 11.1 C 9.67 g/m*3 11.1 C 0 km/h
89 13-10-2018 07:20:00 10.9 C 9.45 g/m*3 10.9 C 0 km/h
90 13-10-2018 07:25:00 10.8 C 9.49 g/m*3 10.8 C 0 km/h
91 13-10-2018 07:30:00 10.8 C 9.49 g/m*3 10.8 C 0 km/h
92 13-10-2018 07:35:00 10.8 C 9.49 g/m*3 10.8 C 0 km/h
93 13-10-2018 07:40:00 10.7 C 9.33 g/m*3 10.7 C 0 km/h
94 13-10-2018 07:45:00 10.7 C 9.43 g/m*3 10.7 C 0 km/h
95 13-10-2018 07:50:00 10.6 C 9.37 g/m*3 10.6 C 0 km/h
96 13-10-2018 07:55:00 10.5 C 9.31 g/m*3 10.5 C 0 km/h
97 13-10-2018 08:00:00 10.6 C 9.37 g/m*3 10.6 C 0 km/h
98 13-10-2018 08:05:00 10.7 C 9.43 g/m*3 10.7 C 0 km/h
99 13-10-2018 08:10:00 10.8 C 9.49 g/m*3 10.8 C 0 km/h
100 13-10-2018 08:15:00 10.8 C 9.49 g/m*3 10.8 C 0 km/h
Sensor: Nr:Datum:Temp:Abs-Feuchte:Windchill:Wind:
Aussen-T/F 101 13-10-2018 08:20:00 10.9 C 9.55 g/m*3 10.9 C 0 km/h
102 13-10-2018 08:25:00 10.8 C 9.49 g/m*3 10.8 C 0 km/h
103 13-10-2018 08:30:00 10.8 C 9.49 g/m*3 10.8 C 0 km/h
104 13-10-2018 08:35:00 10.7 C 9.43 g/m*3 10.7 C 0 km/h
105 13-10-2018 08:40:00 10.7 C 9.43 g/m*3 10.7 C 0 km/h
106 13-10-2018 08:45:00 10.7 C 9.43 g/m*3 10.7 C 0 km/h
107 13-10-2018 08:50:00 10.7 C 9.43 g/m*3 10.7 C 0 km/h
108 13-10-2018 08:55:00 10.6 C 9.37 g/m*3 10.6 C 0 km/h
109 13-10-2018 09:00:00 10.6 C 9.37 g/m*3 10.6 C 0 km/h
110 13-10-2018 09:05:00 10.7 C 9.43 g/m*3 10.7 C 0 km/h
111 13-10-2018 09:10:00 10.7 C 9.43 g/m*3 10.7 C 0 km/h
112 13-10-2018 09:15:00 10.7 C 9.43 g/m*3 10.7 C 0 km/h
113 13-10-2018 09:20:00 10.8 C 9.49 g/m*3 10.8 C 0 km/h
114 13-10-2018 09:25:00 10.9 C 9.55 g/m*3 10.9 C 0 km/h
115 13-10-2018 09:30:00 11 C 9.71 g/m*3 11 C 0 km/h
116 13-10-2018 09:35:00 11.1 C 9.77 g/m*3 11.1 C 0 km/h
117 13-10-2018 09:40:00 11.1 C 9.77 g/m*3 11.1 C 0 km/h
118 13-10-2018 09:45:00 11.2 C 9.83 g/m*3 11.2 C 0 km/h
119 13-10-2018 09:50:00 11.3 C 9.89 g/m*3 11.3 C 0 km/h
120 13-10-2018 09:55:00 11.5 C 10.02 g/m*3 11.5 C 0 km/h
121 13-10-2018 10:00:00 11.7 C 10.15 g/m*3 11.7 C 0 km/h
122 13-10-2018 10:05:00 11.8 C 10.21 g/m*3 11.8 C 0 km/h
123 13-10-2018 10:10:00 11.9 C 10.27 g/m*3 11.9 C 0 km/h
124 13-10-2018 10:15:00 12.1 C 10.4 g/m*3 12.1 C 0 km/h
125 13-10-2018 10:20:00 12.2 C 10.47 g/m*3 12.2 C 0 km/h
Sensor: Nr:Datum:Temp:Abs-Feuchte:Windchill:Wind:
Aussen-T/F 126 13-10-2018 10:25:00 12.3 C 10.53 g/m*3 12.3 C 0 km/h
127 13-10-2018 10:30:00 12.5 C 10.66 g/m*3 12.5 C 0 km/h
128 13-10-2018 10:35:00 12.7 C 10.8 g/m*3 12.7 C 0 km/h
129 13-10-2018 10:40:00 12.8 C 10.87 g/m*3 12.8 C 1.6 km/h
130 13-10-2018 10:45:00 12.9 C 10.93 g/m*3 12.9 C 0 km/h
131 13-10-2018 10:50:00 13.1 C 11.07 g/m*3 13.1 C 0 km/h
132 13-10-2018 10:55:00 13.2 C 11.14 g/m*3 13.2 C 0 km/h
133 13-10-2018 11:00:00 13.4 C 11.28 g/m*3 13.4 C 0 km/h
134 13-10-2018 11:05:00 13.7 C 11.49 g/m*3 13.7 C 0 km/h
135 13-10-2018 11:10:00 13.9 C 11.63 g/m*3 13.9 C 0 km/h
136 13-10-2018 11:15:00 14.1 C 11.77 g/m*3 14.1 C 0 km/h
137 13-10-2018 11:20:00 14.3 C 11.92 g/m*3 14.3 C 0 km/h
138 13-10-2018 11:25:00 14.4 C 11.99 g/m*3 14.4 C 0 km/h
139 13-10-2018 11:30:00 14.7 C 12.21 g/m*3 14.7 C 0 km/h
140 13-10-2018 11:35:00 14.8 C 12.29 g/m*3 14.8 C 0 km/h
141 13-10-2018 11:40:00 14.9 C 12.36 g/m*3 14.9 C 0 km/h
142 13-10-2018 11:45:00 15.1 C 12.51 g/m*3 15.1 C 0 km/h
143 13-10-2018 11:50:00 15.3 C 12.67 g/m*3 15.3 C 0 km/h
144 13-10-2018 11:55:00 15.4 C 12.74 g/m*3 15.4 C 0 km/h
145 13-10-2018 12:00:00 15.6 C 12.9 g/m*3 15.6 C 0 km/h
146 13-10-2018 12:05:00 15.8 C 13.06 g/m*3 15.8 C 0 km/h
147 13-10-2018 12:10:00 15.9 C 13.14 g/m*3 15.9 C 0 km/h
148 13-10-2018 12:15:00 16.2 C 13.24 g/m*3 16.2 C 0 km/h
149 13-10-2018 12:20:00 16.4 C 13.4 g/m*3 16.4 C 0 km/h
150 13-10-2018 12:25:00 16.7 C 13.64 g/m*3 16.7 C 0 km/h
Sensor: Nr:Datum:Temp:Abs-Feuchte:Windchill:Wind:
Aussen-T/F 151 13-10-2018 12:30:00 16.8 C 13.44 g/m*3 16.8 C 4.8 km/h
152 13-10-2018 12:35:00 17.1 C 13.68 g/m*3 17.1 C 0 km/h
153 13-10-2018 12:40:00 17.4 C 13.78 g/m*3 17.4 C 0 km/h
154 13-10-2018 12:45:00 17.6 C 13.8 g/m*3 17.6 C 0 km/h
155 13-10-2018 12:50:00 17.8 C 13.81 g/m*3 17.8 C 0 km/h
156 13-10-2018 12:55:00 18.1 C 13.75 g/m*3 18.1 C 0 km/h
157 13-10-2018 13:00:00 18.4 C 13.84 g/m*3 18.4 C 3.2 km/h
158 13-10-2018 13:05:00 18.7 C 13.93 g/m*3 18.7 C 1.6 km/h
159 13-10-2018 13:10:00 18.9 C 13.93 g/m*3 18.9 C 0 km/h
160 13-10-2018 13:15:00 19.3 C 13.93 g/m*3 19.3 C 0 km/h
161 13-10-2018 13:20:00 19.9 C 13.57 g/m*3 19.9 C 6.4 km/h
162 13-10-2018 13:25:00 20.4 C 13.8 g/m*3 20.4 C 1.6 km/h
163 13-10-2018 13:30:00 20.7 C 14.04 g/m*3 20.7 C 0 km/h
164 13-10-2018 13:35:00 20.9 C 14.21 g/m*3 20.9 C 1.6 km/h
165 13-10-2018 13:40:00 21 C 13.56 g/m*3 21 C 3.2 km/h
166 13-10-2018 13:45:00 21.2 C 13.34 g/m*3 21.2 C 4.8 km/h
167 13-10-2018 13:50:00 21.5 C 13.39 g/m*3 21.5 C 4.8 km/h
168 13-10-2018 13:55:00 21.8 C 13.81 g/m*3 21.8 C 1.6 km/h
169 13-10-2018 14:00:00 22.1 C 13.86 g/m*3 22.1 C 4.8 km/h
170 13-10-2018 14:05:00 22.3 C 14.02 g/m*3 22.3 C 1.6 km/h
171 13-10-2018 14:10:00 22.6 C 14.26 g/m*3 22.6 C 0 km/h
172 13-10-2018 14:15:00 22.8 C 14.02 g/m*3 22.8 C 1.6 km/h
173 13-10-2018 14:20:00 23 C 13.36 g/m*3 23 C 0 km/h
174 13-10-2018 14:25:00 23.3 C 13.17 g/m*3 23.3 C 6.4 km/h
175 13-10-2018 14:30:00 23.6 C 13.19 g/m*3 23.6 C 1.6 km/h
Sensor: Nr:Datum:Temp:Abs-Feuchte:Windchill:Wind:
Aussen-T/F 176 13-10-2018 14:35:00 23.7 C 13.05 g/m*3 23.7 C 3.2 km/h
177 13-10-2018 14:40:00 23.7 C 13.05 g/m*3 23.7 C 11.3 km/h
178 13-10-2018 14:45:00 23.7 C 12.62 g/m*3 23.7 C 4.8 km/h
179 13-10-2018 14:50:00 23.7 C 12.83 g/m*3 23.7 C 4.8 km/h
180 13-10-2018 14:55:00 23.6 C 13.61 g/m*3 23.6 C 1.6 km/h
181 13-10-2018 15:00:00 23.3 C 13.38 g/m*3 23.3 C 1.6 km/h
182 13-10-2018 15:05:00 23.1 C 13.44 g/m*3 23.1 C 0 km/h
183 13-10-2018 15:10:00 23 C 12.54 g/m*3 23 C 4.8 km/h
184 13-10-2018 15:15:00 23 C 13.36 g/m*3 23 C 4.8 km/h
185 13-10-2018 15:20:00 23.1 C 12.82 g/m*3 23.1 C 0 km/h
186 13-10-2018 15:25:00 23.3 C 12.75 g/m*3 23.3 C 4.8 km/h
187 13-10-2018 15:30:00 23.4 C 12.2 g/m*3 23.4 C 6.4 km/h
188 13-10-2018 15:35:00 23.6 C 12.55 g/m*3 23.6 C 3.2 km/h
189 13-10-2018 15:40:00 23.6 C 12.12 g/m*3 23.6 C 6.4 km/h
190 13-10-2018 15:45:00 23.5 C 12.69 g/m*3 23.5 C 3.2 km/h
191 13-10-2018 15:50:00 23.4 C 12.83 g/m*3 23.4 C 1.6 km/h
192 13-10-2018 15:55:00 23.3 C 11.5 g/m*3 23.3 C 4.8 km/h
193 13-10-2018 16:00:00 23.4 C 12.62 g/m*3 23.4 C 4.8 km/h
194 13-10-2018 16:05:00 23.3 C 12.34 g/m*3 23.3 C 3.2 km/h
195 13-10-2018 16:10:00 23.2 C 11.85 g/m*3 23.2 C 0 km/h
196 13-10-2018 16:15:00 23.2 C 11.64 g/m*3 23.2 C 6.4 km/h
197 13-10-2018 16:20:00 23.2 C 12.47 g/m*3 23.2 C 3.2 km/h
198 13-10-2018 16:25:00 23.1 C 12.61 g/m*3 23.1 C 0 km/h
199 13-10-2018 16:30:00 22.8 C 11.99 g/m*3 22.8 C 0 km/h
200 13-10-2018 16:35:00 22.6 C 11.65 g/m*3 22.6 C 0 km/h
Sensor: Nr:Datum:Temp:Abs-Feuchte:Windchill:Wind:
Aussen-T/F 201 13-10-2018 16:40:00 22.4 C 12.31 g/m*3 22.4 C 4.8 km/h
202 13-10-2018 16:45:00 22.3 C 12.05 g/m*3 22.3 C 0 km/h
203 13-10-2018 16:50:00 22.1 C 12.1 g/m*3 22.1 C 0 km/h
204 13-10-2018 16:55:00 21.9 C 12.16 g/m*3 21.9 C 0 km/h
205 13-10-2018 17:00:00 21.8 C 12.09 g/m*3 21.8 C 0 km/h
206 13-10-2018 17:05:00 21.8 C 12.09 g/m*3 21.8 C 0 km/h
207 13-10-2018 17:10:00 21.6 C 11.95 g/m*3 21.6 C 0 km/h
208 13-10-2018 17:15:00 21.5 C 12.07 g/m*3 21.5 C 0 km/h
209 13-10-2018 17:20:00 21.3 C 11.93 g/m*3 21.3 C 0 km/h
210 13-10-2018 17:25:00 21.2 C 11.68 g/m*3 21.2 C 0 km/h
211 13-10-2018 17:30:00 21.2 C 11.86 g/m*3 21.2 C 0 km/h
212 13-10-2018 17:35:00 21.1 C 11.79 g/m*3 21.1 C 0 km/h
213 13-10-2018 17:40:00 21 C 11.91 g/m*3 21 C 0 km/h
214 13-10-2018 17:45:00 20.9 C 11.84 g/m*3 20.9 C 0 km/h
215 13-10-2018 17:50:00 20.9 C 11.84 g/m*3 20.9 C 0 km/h
216 13-10-2018 17:55:00 20.9 C 12.02 g/m*3 20.9 C 0 km/h
217 13-10-2018 18:00:00 20.9 C 12.02 g/m*3 20.9 C 0 km/h
218 13-10-2018 18:05:00 21 C 12.09 g/m*3 21 C 0 km/h
219 13-10-2018 18:10:00 21.1 C 11.98 g/m*3 21.1 C 0 km/h
220 13-10-2018 18:15:00 21.1 C 11.79 g/m*3 21.1 C 0 km/h
221 13-10-2018 18:20:00 21 C 11.91 g/m*3 21 C 0 km/h
222 13-10-2018 18:25:00 20.9 C 11.84 g/m*3 20.9 C 0 km/h
223 13-10-2018 18:30:00 20.7 C 11.7 g/m*3 20.7 C 0 km/h
224 13-10-2018 18:35:00 20.5 C 11.57 g/m*3 20.5 C 0 km/h
225 13-10-2018 18:40:00 20.3 C 11.61 g/m*3 20.3 C 0 km/h
Sensor: Nr:Datum:Temp:Abs-Feuchte:Windchill:Wind:
Aussen-T/F 226 13-10-2018 18:45:00 20 C 11.41 g/m*3 20 C 0 km/h
227 13-10-2018 18:50:00 19.8 C 11.44 g/m*3 19.8 C 0 km/h
228 13-10-2018 18:55:00 19.6 C 11.31 g/m*3 19.6 C 0 km/h
229 13-10-2018 19:00:00 19.4 C 11.18 g/m*3 19.4 C 0 km/h
230 13-10-2018 19:05:00 19.3 C 11.28 g/m*3 19.3 C 0 km/h
231 13-10-2018 19:10:00 19.2 C 11.21 g/m*3 19.2 C 0 km/h
232 13-10-2018 19:15:00 19.1 C 11.31 g/m*3 19.1 C 0 km/h
233 13-10-2018 19:20:00 18.9 C 11.18 g/m*3 18.9 C 0 km/h
234 13-10-2018 19:25:00 18.7 C 11.21 g/m*3 18.7 C 0 km/h
235 13-10-2018 19:30:00 18.6 C 11.3 g/m*3 18.6 C 0 km/h
236 13-10-2018 19:35:00 18.3 C 11.1 g/m*3 18.3 C 0 km/h
237 13-10-2018 19:40:00 18.2 C 11.19 g/m*3 18.2 C 0 km/h
238 13-10-2018 19:45:00 18.1 C 11.12 g/m*3 18.1 C 0 km/h
239 13-10-2018 19:50:00 17.8 C 11.08 g/m*3 17.8 C 0 km/h
240 13-10-2018 19:55:00 17.7 C 11.16 g/m*3 17.7 C 0 km/h
241 13-10-2018 20:00:00 17.4 C 11.12 g/m*3 17.4 C 0 km/h
242 13-10-2018 20:05:00 17.3 C 11.05 g/m*3 17.3 C 0 km/h
243 13-10-2018 20:10:00 17.1 C 11.06 g/m*3 17.1 C 0 km/h
244 13-10-2018 20:15:00 16.8 C 11.01 g/m*3 16.8 C 0 km/h
245 13-10-2018 20:20:00 16.7 C 11.08 g/m*3 16.7 C 0 km/h
246 13-10-2018 20:25:00 16.6 C 11.02 g/m*3 16.6 C 0 km/h
247 13-10-2018 20:30:00 16.4 C 11.03 g/m*3 16.4 C 0 km/h
248 13-10-2018 20:35:00 16.4 C 11.03 g/m*3 16.4 C 0 km/h
249 13-10-2018 20:40:00 16.3 C 10.96 g/m*3 16.3 C 0 km/h
250 13-10-2018 20:45:00 16.2 C 10.89 g/m*3 16.2 C 0 km/h
Sensor: Nr:Datum:Temp:Abs-Feuchte:Windchill:Wind:
Aussen-T/F 251 13-10-2018 20:50:00 16.1 C 10.97 g/m*3 16.1 C 0 km/h
252 13-10-2018 20:55:00 16 C 10.9 g/m*3 16 C 0 km/h
253 13-10-2018 21:00:00 15.9 C 10.83 g/m*3 15.9 C 0 km/h
254 13-10-2018 21:05:00 15.8 C 10.77 g/m*3 15.8 C 0 km/h
255 13-10-2018 21:10:00 15.8 C 10.77 g/m*3 15.8 C 0 km/h
256 13-10-2018 21:15:00 15.8 C 10.77 g/m*3 15.8 C 0 km/h
257 13-10-2018 21:20:00 15.8 C 10.77 g/m*3 15.8 C 0 km/h
258 13-10-2018 21:25:00 15.8 C 10.77 g/m*3 15.8 C 0 km/h
259 13-10-2018 21:30:00 15.7 C 10.7 g/m*3 15.7 C 0 km/h
260 13-10-2018 21:35:00 15.7 C 10.7 g/m*3 15.7 C 0 km/h
261 13-10-2018 21:40:00 15.7 C 10.7 g/m*3 15.7 C 0 km/h
262 13-10-2018 21:45:00 15.7 C 10.7 g/m*3 15.7 C 0 km/h
263 13-10-2018 21:50:00 15.6 C 10.64 g/m*3 15.6 C 0 km/h
264 13-10-2018 21:55:00 15.6 C 10.64 g/m*3 15.6 C 0 km/h
265 13-10-2018 22:00:00 15.6 C 10.64 g/m*3 15.6 C 0 km/h
266 13-10-2018 22:05:00 15.6 C 10.77 g/m*3 15.6 C 0 km/h
267 13-10-2018 22:10:00 15.5 C 10.71 g/m*3 15.5 C 0 km/h
268 13-10-2018 22:15:00 15.5 C 10.71 g/m*3 15.5 C 0 km/h
269 13-10-2018 22:20:00 15.5 C 10.71 g/m*3 15.5 C 0 km/h
270 13-10-2018 22:25:00 15.4 C 10.64 g/m*3 15.4 C 0 km/h
271 13-10-2018 22:30:00 15.4 C 10.64 g/m*3 15.4 C 0 km/h
272 13-10-2018 22:35:00 15.3 C 10.58 g/m*3 15.3 C 0 km/h
273 13-10-2018 22:40:00 15.2 C 10.51 g/m*3 15.2 C 0 km/h
274 13-10-2018 22:45:00 15.1 C 10.45 g/m*3 15.1 C 0 km/h
275 13-10-2018 22:50:00 14.9 C 10.45 g/m*3 14.9 C 0 km/h
Sensor: Nr:Datum:Temp:Abs-Feuchte:Windchill:Wind:
Aussen-T/F 276 13-10-2018 22:55:00 14.9 C 10.45 g/m*3 14.9 C 0 km/h
277 13-10-2018 23:00:00 14.8 C 10.39 g/m*3 14.8 C 0 km/h
278 13-10-2018 23:05:00 14.7 C 10.32 g/m*3 14.7 C 0 km/h
279 13-10-2018 23:10:00 14.6 C 10.39 g/m*3 14.6 C 0 km/h
280 13-10-2018 23:15:00 14.4 C 10.26 g/m*3 14.4 C 0 km/h
281 13-10-2018 23:20:00 14.2 C 10.14 g/m*3 14.2 C 0 km/h
282 13-10-2018 23:25:00 14.1 C 10.19 g/m*3 14.1 C 0 km/h
283 13-10-2018 23:30:00 13.9 C 10.07 g/m*3 13.9 C 0 km/h
284 13-10-2018 23:35:00 13.8 C 10.13 g/m*3 13.8 C 0 km/h
285 13-10-2018 23:40:00 13.8 C 10.13 g/m*3 13.8 C 0 km/h
286 13-10-2018 23:45:00 13.7 C 10.18 g/m*3 13.7 C 0 km/h
287 13-10-2018 23:50:00 13.7 C 10.18 g/m*3 13.7 C 0 km/h
288 13-10-2018 23:55:00 13.7 C 10.18 g/m*3 13.7 C 0 km/h

Legende:
   Min
   Max


Maximal/Minimal-Werte vom 12.09.2015 - 14.10.2015

Sensor Min Max Avg
Temp
(Aussen-T/F)
0.4 °C
13-10-2015  06:05:00
23.7 °C
12-09-2015  16:50:00
12.35 °C

Die Daten stammen von einer Davis Vantage Pro 2 Wetter-Station und werden unter Linux mit der Software wview2wettercgi und aufbereitet. Alle Angaben erfolgen ohne Gewähr für ihre Vollständigkeit oder Richtigkeit.
Kontakt: Rainer Krienke krienke@uni-koblenz.de . Meine Webseiten an der Uni Koblenz oder privat.
Version: $Revision: 0.78 $